This is the latest recevied weather packets stored in our database for station/object HS1AXC-1. If no packets are shown the sender has not sent any weather packets the latest 10 day(s).
| Time | Temp. | Humidity | Pressure | Rain* | Wind** | Luminosity | Snow |
|---|---|---|---|---|---|---|---|
| 1777616341 | 30° C | 99% | 1010 hPa | - | - | 0 W/m² | - |
| 1777615719 | 30° C | 99% | 1010 hPa | - | - | 0 W/m² | - |
| 1777615097 | 30.56° C | 99% | 1010 hPa | - | - | 0 W/m² | - |
| 1777614475 | 30.56° C | 99% | 1011 hPa | - | - | 0 W/m² | - |
| 1777614166 | 30.56° C | 99% | 1010 hPa | - | - | 0 W/m² | - |
| 1777613544 | 32.22° C | 99% | 1010 hPa | - | - | 0 W/m² | - |
| 1777612922 | 35.56° C | 62% | 1010 hPa | - | - | 0 W/m² | - |
| 1777612506 | 36.67° C | 60% | 1010 hPa | - | - | 0 W/m² | - |
| 1777611884 | 36.67° C | 60% | 1010 hPa | - | - | 0 W/m² | - |
| 1777611262 | 36.67° C | 59% | 1010 hPa | - | - | 2 W/m² | - |
| 1777610640 | 36.67° C | 60% | 1010 hPa | - | - | 0 W/m² | - |
| 1777610018 | 36.67° C | 60% | 1010 hPa | - | - | 1 W/m² | - |
| 1777609396 | 36.67° C | 59% | 1010 hPa | - | - | 1 W/m² | - |
| 1777608774 | 37.22° C | 60% | 1010 hPa | - | - | 2 W/m² | - |
| 1777608152 | 36.67° C | 61% | 1010 hPa | - | - | 1 W/m² | - |
| 1777607530 | 35.56° C | 64% | 1010 hPa | - | - | 2 W/m² | - |
| 1777606647 | 36.67° C | 63% | 1011 hPa | - | - | 2 W/m² | - |
| 1777606025 | 36.11° C | 65% | 1011 hPa | - | - | 1 W/m² | - |
| 1777605402 | 35.56° C | 67% | 1011 hPa | - | - | 2 W/m² | - |
| 1777604780 | 35.56° C | 68% | 1011 hPa | - | - | 1 W/m² | - |
| 1777604158 | 35° C | 70% | 1011 hPa | - | - | 1 W/m² | - |
| 1777603536 | 35.56° C | 67% | 1011 hPa | - | - | 1 W/m² | - |
| 1777602914 | 34.44° C | 70% | 1011 hPa | - | - | 2 W/m² | - |
| 1777602292 | 34.44° C | 71% | 1011 hPa | - | - | 2 W/m² | - |
| 1777601670 | 34.44° C | 71% | 1011 hPa | - | - | 1 W/m² | - |
* Rain since midnight (hover to see other rain measurements)
** Current wind speed in m/s (hover to see current wind gust speed)